sensor_id;sensor_type;location;lat;lon;timestamp;pressure;altitude;pressure_sealevel;temperature;humidity
52839;BME280;39219;53.678;9.856;2022-07-17T00:01:13;102346.72;;;10.78;100.00
52839;BME280;39219;53.678;9.856;2022-07-17T00:03:40;102341.38;;;10.72;100.00
52839;BME280;39219;53.678;9.856;2022-07-17T00:06:07;102345.81;;;10.76;100.00
52839;BME280;39219;53.678;9.856;2022-07-17T00:08:33;102343.16;;;10.79;100.00
52839;BME280;39219;53.678;9.856;2022-07-17T00:11:00;102345.84;;;10.78;100.00
52839;BME280;39219;53.678;9.856;2022-07-17T00:13:28;102347.59;;;10.74;100.00
52839;BME280;39219;53.678;9.856;2022-07-17T00:15:54;102344.06;;;10.74;100.00
52839;BME280;39219;53.678;9.856;2022-07-17T00:18:21;102350.22;;;10.63;100.00
52839;BME280;39219;53.678;9.856;2022-07-17T00:20:48;102352.00;;;10.66;100.00
52839;BME280;39219;53.678;9.856;2022-07-17T00:23:14;102343.19;;;10.75;100.00
52839;BME280;39219;53.678;9.856;2022-07-17T00:25:41;102360.88;;;10.77;100.00
52839;BME280;39219;53.678;9.856;2022-07-17T00:28:07;102351.13;;;10.79;100.00
52839;BME280;39219;53.678;9.856;2022-07-17T00:30:35;102354.69;;;10.81;100.00
52839;BME280;39219;53.678;9.856;2022-07-17T00:33:03;102345.81;;;10.76;100.00
52839;BME280;39219;53.678;9.856;2022-07-17T00:35:29;102350.22;;;10.63;100.00
52839;BME280;39219;53.678;9.856;2022-07-17T00:37:56;102351.13;;;10.55;100.00
52839;BME280;39219;53.678;9.856;2022-07-17T00:40:24;102348.41;;;10.44;100.00
52839;BME280;39219;53.678;9.856;2022-07-17T00:42:51;102344.91;;;10.46;100.00
52839;BME280;39219;53.678;9.856;2022-07-17T00:45:18;102343.09;;;10.41;100.00
52839;BME280;39219;53.678;9.856;2022-07-17T00:47:55;102337.78;;;10.39;100.00
52839;BME280;39219;53.678;9.856;2022-07-17T00:50:23;102339.53;;;10.37;100.00
52839;BME280;39219;53.678;9.856;2022-07-17T00:52:50;102333.34;;;10.43;100.00
52839;BME280;39219;53.678;9.856;2022-07-17T00:55:17;102341.28;;;10.35;100.00
52839;BME280;39219;53.678;9.856;2022-07-17T00:57:46;102328.03;;;10.38;100.00
52839;BME280;39219;53.678;9.856;2022-07-17T01:00:13;102332.50;;;10.45;100.00
52839;BME280;39219;53.678;9.856;2022-07-17T01:02:40;102342.19;;;10.37;100.00
52839;BME280;39219;53.678;9.856;2022-07-17T01:05:08;102339.56;;;10.43;100.00
52839;BME280;39219;53.678;9.856;2022-07-17T01:07:34;102339.59;;;10.51;100.00
52839;BME280;39219;53.678;9.856;2022-07-17T01:10:01;102344.91;;;10.49;100.00
52839;BME280;39219;53.678;9.856;2022-07-17T01:12:28;102339.56;;;10.43;100.00
52839;BME280;39219;53.678;9.856;2022-07-17T01:14:55;102341.34;;;10.41;100.00
52839;BME280;39219;53.678;9.856;2022-07-17T01:17:23;102351.06;;;10.47;100.00
52839;BME280;39219;53.678;9.856;2022-07-17T01:19:50;102349.34;;;10.55;100.00
52839;BME280;39219;53.678;9.856;2022-07-17T01:22:18;102343.16;;;10.65;100.00
52839;BME280;39219;53.678;9.856;2022-07-17T01:24:45;102347.59;;;10.66;100.00
52839;BME280;39219;53.678;9.856;2022-07-17T01:27:12;102351.16;;;10.81;100.00
52839;BME280;39219;53.678;9.856;2022-07-17T01:29:39;102344.97;;;10.99;100.00
52839;BME280;39219;53.678;9.856;2022-07-17T01:32:06;102343.19;;;11.10;100.00
52839;BME280;39219;53.678;9.856;2022-07-17T01:34:32;102355.59;;;11.15;100.00
52839;BME280;39219;53.678;9.856;2022-07-17T01:36:59;102350.28;;;11.25;100.00
52839;BME280;39219;53.678;9.856;2022-07-17T01:39:26;102349.34;;;11.40;100.00
52839;BME280;39219;53.678;9.856;2022-07-17T01:42:07;102350.25;;;11.46;100.00
52839;BME280;39219;53.678;9.856;2022-07-17T01:44:33;102357.31;;;11.56;100.00
52839;BME280;39219;53.678;9.856;2022-07-17T01:47:00;102354.63;;;11.61;100.00
52839;BME280;39219;53.678;9.856;2022-07-17T01:49:27;102353.75;;;11.62;100.00
52839;BME280;39219;53.678;9.856;2022-07-17T01:51:53;102357.31;;;11.59;100.00
52839;BME280;39219;53.678;9.856;2022-07-17T01:54:24;102356.41;;;11.62;100.00
52839;BME280;39219;53.678;9.856;2022-07-17T01:56:52;102362.63;;;11.65;100.00
52839;BME280;39219;53.678;9.856;2022-07-17T01:59:19;102363.50;;;11.70;100.00
52839;BME280;39219;53.678;9.856;2022-07-17T02:01:45;102357.25;;;11.76;100.00
52839;BME280;39219;53.678;9.856;2022-07-17T02:04:12;102358.16;;;11.77;100.00
52839;BME280;39219;53.678;9.856;2022-07-17T02:06:38;102353.72;;;11.82;100.00
52839;BME280;39219;53.678;9.856;2022-07-17T02:09:05;102354.59;;;11.87;100.00
52839;BME280;39219;53.678;9.856;2022-07-17T02:11:31;102359.03;;;11.91;100.00
52839;BME280;39219;53.678;9.856;2022-07-17T02:13:59;102358.09;;;11.95;100.00
52839;BME280;39219;53.678;9.856;2022-07-17T02:16:25;102361.63;;;11.99;100.00
52839;BME280;39219;53.678;9.856;2022-07-17T02:18:52;102356.31;;;12.00;100.00
52839;BME280;39219;53.678;9.856;2022-07-17T02:21:18;102366.97;;;12.05;100.00
52839;BME280;39219;53.678;9.856;2022-07-17T02:23:45;102364.28;;;12.11;100.00
52839;BME280;39219;53.678;9.856;2022-07-17T02:26:11;102361.59;;;12.13;100.00
52839;BME280;39219;53.678;9.856;2022-07-17T02:28:38;102366.91;;;12.21;100.00
52839;BME280;39219;53.678;9.856;2022-07-17T02:31:06;102365.13;;;12.23;100.00
52839;BME280;39219;53.678;9.856;2022-07-17T02:33:32;102381.97;;;12.29;100.00
52839;BME280;39219;53.678;9.856;2022-07-17T02:35:59;102379.28;;;12.33;100.00
52839;BME280;39219;53.678;9.856;2022-07-17T02:38:26;102386.34;;;12.38;100.00
52839;BME280;39219;53.678;9.856;2022-07-17T02:40:53;102387.22;;;12.45;100.00
52839;BME280;39219;53.678;9.856;2022-07-17T02:43:19;102386.34;;;12.46;100.00
52839;BME280;39219;53.678;9.856;2022-07-17T02:45:46;102397.00;;;12.46;100.00
52839;BME280;39219;53.678;9.856;2022-07-17T02:48:14;102392.56;;;12.45;100.00
52839;BME280;39219;53.678;9.856;2022-07-17T02:50:40;102390.78;;;12.42;100.00
52839;BME280;39219;53.678;9.856;2022-07-17T02:53:07;102389.00;;;12.43;100.00
52839;BME280;39219;53.678;9.856;2022-07-17T02:55:33;102404.06;;;12.49;100.00
52839;BME280;39219;53.678;9.856;2022-07-17T02:58:00;102404.06;;;12.49;100.00
52839;BME280;39219;53.678;9.856;2022-07-17T03:00:26;102400.47;;;12.56;100.00
52839;BME280;39219;53.678;9.856;2022-07-17T03:02:53;102412.03;;;12.56;100.00
52839;BME280;39219;53.678;9.856;2022-07-17T03:05:21;102416.44;;;12.59;100.00
52839;BME280;39219;53.678;9.856;2022-07-17T03:07:48;102418.22;;;12.60;100.00
52839;BME280;39219;53.678;9.856;2022-07-17T03:10:15;102415.50;;;12.68;100.00
52839;BME280;39219;53.678;9.856;2022-07-17T03:12:42;102432.38;;;12.67;100.00
52839;BME280;39219;53.678;9.856;2022-07-17T03:15:09;102423.47;;;12.74;100.00
52839;BME280;39219;53.678;9.856;2022-07-17T03:17:37;102419.06;;;12.70;100.00
52839;BME280;39219;53.678;9.856;2022-07-17T03:20:04;102405.75;;;12.68;100.00
52839;BME280;39219;53.678;9.856;2022-07-17T03:22:33;102396.03;;;12.58;100.00
52839;BME280;39219;53.678;9.856;2022-07-17T03:24:59;102386.31;;;12.52;100.00
52839;BME280;39219;53.678;9.856;2022-07-17T03:27:26;102371.22;;;12.48;100.00
52839;BME280;39219;53.678;9.856;2022-07-17T03:29:53;102376.59;;;12.42;100.00
52839;BME280;39219;53.678;9.856;2022-07-17T03:32:19;102377.47;;;12.39;100.00
52839;BME280;39219;53.678;9.856;2022-07-17T03:34:46;102371.22;;;12.43;100.00
52839;BME280;39219;53.678;9.856;2022-07-17T03:37:13;102362.34;;;12.44;100.00
52839;BME280;39219;53.678;9.856;2022-07-17T03:39:41;102372.97;;;12.48;100.00
52839;BME280;39219;53.678;9.856;2022-07-17T03:42:07;102386.28;;;12.51;100.00
52839;BME280;39219;53.678;9.856;2022-07-17T03:44:34;102388.00;;;12.61;100.00
52839;BME280;39219;53.678;9.856;2022-07-17T03:47:00;102392.38;;;12.73;100.00
52839;BME280;39219;53.678;9.856;2022-07-17T03:49:27;102391.41;;;12.88;100.00
52839;BME280;39219;53.678;9.856;2022-07-17T03:51:53;102402.00;;;12.94;100.00
52839;BME280;39219;53.678;9.856;2022-07-17T03:54:20;102402.00;;;12.96;100.00
52839;BME280;39219;53.678;9.856;2022-07-17T03:56:48;102405.53;;;13.01;100.00
52839;BME280;39219;53.678;9.856;2022-07-17T03:59:14;102407.31;;;13.02;100.00
52839;BME280;39219;53.678;9.856;2022-07-17T04:01:41;102405.50;;;13.02;100.00
52839;BME280;39219;53.678;9.856;2022-07-17T04:04:07;102404.63;;;13.02;100.00
52839;BME280;39219;53.678;9.856;2022-07-17T04:06:34;102410.78;;;13.12;100.00
52839;BME280;39219;53.678;9.856;2022-07-17T04:09:00;102408.97;;;13.17;100.00
52839;BME280;39219;53.678;9.856;2022-07-17T04:11:27;102410.75;;;13.16;100.00
52839;BME280;39219;53.678;9.856;2022-07-17T04:13:54;102415.22;;;13.14;100.00
52839;BME280;39219;53.678;9.856;2022-07-17T04:16:21;102411.66;;;13.11;100.00
52839;BME280;39219;53.678;9.856;2022-07-17T04:18:47;102415.19;;;13.16;100.00
52839;BME280;39219;53.678;9.856;2022-07-17T04:21:14;102411.63;;;13.17;100.00
52839;BME280;39219;53.678;9.856;2022-07-17T04:23:41;102407.19;;;13.16;100.00
52839;BME280;39219;53.678;9.856;2022-07-17T04:26:07;102392.03;;;13.23;100.00
52839;BME280;39219;53.678;9.856;2022-07-17T04:28:34;102403.59;;;13.23;100.00
52839;BME280;39219;53.678;9.856;2022-07-17T04:31:02;102405.31;;;13.30;100.00
52839;BME280;39219;53.678;9.856;2022-07-17T04:33:29;102405.28;;;13.32;100.00
52839;BME280;39219;53.678;9.856;2022-07-17T04:35:55;102391.00;;;13.36;100.00
52839;BME280;39219;53.678;9.856;2022-07-17T04:38:22;102400.75;;;13.40;100.00
52839;BME280;39219;53.678;9.856;2022-07-17T04:40:48;102396.31;;;13.45;100.00
52839;BME280;39219;53.678;9.856;2022-07-17T04:43:15;102406.03;;;13.54;100.00
52839;BME280;39219;53.678;9.856;2022-07-17T04:45:41;102397.03;;;13.61;100.00
52839;BME280;39219;53.678;9.856;2022-07-17T04:48:09;102389.75;;;13.81;100.00
52839;BME280;39219;53.678;9.856;2022-07-17T04:50:36;102389.47;;;14.02;98.52
52839;BME280;39219;53.678;9.856;2022-07-17T04:53:02;102390.94;;;14.27;98.05
52839;BME280;39219;53.678;9.856;2022-07-17T04:55:29;102390.50;;;14.59;95.51
52839;BME280;39219;53.678;9.856;2022-07-17T04:57:55;102385.56;;;14.94;93.59
52839;BME280;39219;53.678;9.856;2022-07-17T05:00:22;102391.50;;;15.15;91.24
52839;BME280;39219;53.678;9.856;2022-07-17T05:02:48;102393.78;;;15.39;90.67
52839;BME280;39219;53.678;9.856;2022-07-17T05:05:16;102401.59;;;15.50;88.73
52839;BME280;39219;53.678;9.856;2022-07-17T05:07:43;102396.34;;;15.44;86.56
52839;BME280;39219;53.678;9.856;2022-07-17T05:10:09;102393.03;;;15.30;88.50
52839;BME280;39219;53.678;9.856;2022-07-17T05:12:36;102401.34;;;15.14;86.69
52839;BME280;39219;53.678;9.856;2022-07-17T05:15:03;102399.41;;;15.22;88.47
52839;BME280;39219;53.678;9.856;2022-07-17T05:17:30;102409.94;;;15.33;89.17
52839;BME280;39219;53.678;9.856;2022-07-17T05:19:56;102411.66;;;15.37;88.13
52839;BME280;39219;53.678;9.856;2022-07-17T05:22:24;102415.63;;;15.13;86.61
52839;BME280;39219;53.678;9.856;2022-07-17T05:24:51;102409.31;;;15.17;88.79
52839;BME280;39219;53.678;9.856;2022-07-17T05:27:17;102420.59;;;15.35;88.19
52839;BME280;39219;53.678;9.856;2022-07-17T05:29:44;102422.34;;;15.37;88.51
52839;BME280;39219;53.678;9.856;2022-07-17T05:32:10;102422.56;;;15.25;87.95
52839;BME280;39219;53.678;9.856;2022-07-17T05:34:37;102420.78;;;15.76;85.56
52839;BME280;39219;53.678;9.856;2022-07-17T05:37:03;102411.19;;;16.53;81.74
52839;BME280;39219;53.678;9.856;2022-07-17T05:39:31;102413.69;;;16.63;79.95
52839;BME280;39219;53.678;9.856;2022-07-17T05:41:57;102412.22;;;16.87;79.61
52839;BME280;39219;53.678;9.856;2022-07-17T05:44:24;102413.00;;;16.92;77.67
52839;BME280;39219;53.678;9.856;2022-07-17T05:46:50;102419.50;;;16.42;79.20
52839;BME280;39219;53.678;9.856;2022-07-17T05:49:17;102411.72;;;16.30;78.35
52839;BME280;39219;53.678;9.856;2022-07-17T05:51:43;102412.56;;;16.32;80.36
52839;BME280;39219;53.678;9.856;2022-07-17T05:54:10;102422.44;;;17.10;79.79
52839;BME280;39219;53.678;9.856;2022-07-17T05:56:38;102419.91;;;17.75;74.11
52839;BME280;39219;53.678;9.856;2022-07-17T05:59:04;102425.44;;;17.69;74.01
52839;BME280;39219;53.678;9.856;2022-07-17T06:01:31;102428.22;;;17.66;75.72
52839;BME280;39219;53.678;9.856;2022-07-17T06:03:57;102434.78;;;17.19;75.43
52839;BME280;39219;53.678;9.856;2022-07-17T06:06:23;102428.22;;;17.66;74.53
52839;BME280;39219;53.678;9.856;2022-07-17T06:08:50;102434.34;;;18.05;73.75
52839;BME280;39219;53.678;9.856;2022-07-17T06:11:16;102428.06;;;19.23;67.97
52839;BME280;39219;53.678;9.856;2022-07-17T06:13:44;102433.88;;;19.38;67.16
52839;BME280;39219;53.678;9.856;2022-07-17T06:16:11;102434.34;;;20.02;65.58
52839;BME280;39219;53.678;9.856;2022-07-17T06:18:38;102442.03;;;19.89;61.35
52839;BME280;39219;53.678;9.856;2022-07-17T06:21:05;102445.25;;;18.91;67.89
52839;BME280;39219;53.678;9.856;2022-07-17T06:23:31;102450.16;;;18.76;68.55
52839;BME280;39219;53.678;9.856;2022-07-17T06:25:58;102448.34;;;18.48;69.69
52839;BME280;39219;53.678;9.856;2022-07-17T06:28:25;102456.06;;;18.59;68.93
52839;BME280;39219;53.678;9.856;2022-07-17T06:30:53;102457.13;;;18.24;68.80
52839;BME280;39219;53.678;9.856;2022-07-17T06:33:19;102446.66;;;18.44;69.12
52839;BME280;39219;53.678;9.856;2022-07-17T06:35:46;102449.84;;;18.87;68.21
52839;BME280;39219;53.678;9.856;2022-07-17T06:38:12;102456.94;;;19.20;65.18
52839;BME280;39219;53.678;9.856;2022-07-17T06:40:39;102460.75;;;19.39;65.12
52839;BME280;39219;53.678;9.856;2022-07-17T06:43:05;102461.56;;;19.15;65.03
52839;BME280;39219;53.678;9.856;2022-07-17T06:45:32;102468.22;;;19.03;66.11
52839;BME280;39219;53.678;9.856;2022-07-17T06:48:00;102471.31;;;19.19;64.15
52839;BME280;39219;53.678;9.856;2022-07-17T06:50:27;102472.06;;;19.76;64.37
52839;BME280;39219;53.678;9.856;2022-07-17T06:52:54;102471.88;;;20.57;62.66
52839;BME280;39219;53.678;9.856;2022-07-17T06:55:20;102474.50;;;22.32;59.59
52839;BME280;39219;53.678;9.856;2022-07-17T06:57:47;102476.03;;;24.21;50.58
52839;BME280;39219;53.678;9.856;2022-07-17T07:00:14;102477.03;;;26.39;45.94
52839;BME280;39219;53.678;9.856;2022-07-17T07:02:43;102489.84;;;26.08;43.23
52839;BME280;39219;53.678;9.856;2022-07-17T07:05:11;102491.16;;;27.29;40.38
52839;BME280;39219;53.678;9.856;2022-07-17T07:07:38;102488.25;;;27.05;40.43
52839;BME280;39219;53.678;9.856;2022-07-17T07:10:05;102495.72;;;25.71;43.46
52839;BME280;39219;53.678;9.856;2022-07-17T07:12:32;102485.59;;;26.33;42.66
52839;BME280;39219;53.678;9.856;2022-07-17T07:14:58;102483.72;;;26.62;42.20
52839;BME280;39219;53.678;9.856;2022-07-17T07:17:25;102495.25;;;28.55;38.56
52839;BME280;39219;53.678;9.856;2022-07-17T07:19:51;102501.47;;;29.55;36.29
52839;BME280;39219;53.678;9.856;2022-07-17T07:22:19;102489.16;;;28.51;37.00
52839;BME280;39219;53.678;9.856;2022-07-17T07:24:46;102492.50;;;27.64;38.15
52839;BME280;39219;53.678;9.856;2022-07-17T07:27:12;102493.09;;;26.29;41.18
52839;BME280;39219;53.678;9.856;2022-07-17T07:29:39;102493.97;;;25.07;42.55
52839;BME280;39219;53.678;9.856;2022-07-17T07:32:05;102497.56;;;24.92;42.94
52839;BME280;39219;53.678;9.856;2022-07-17T07:34:32;102496.81;;;25.20;44.06
52839;BME280;39219;53.678;9.856;2022-07-17T07:36:58;102501.75;;;25.13;44.02
52839;BME280;39219;53.678;9.856;2022-07-17T07:39:26;102495.97;;;23.69;46.51
52839;BME280;39219;53.678;9.856;2022-07-17T07:41:53;102504.28;;;23.29;49.84
52839;BME280;39219;53.678;9.856;2022-07-17T07:44:19;102500.41;;;22.58;50.20
52839;BME280;39219;53.678;9.856;2022-07-17T07:46:46;102500.13;;;22.04;52.20
52839;BME280;39219;53.678;9.856;2022-07-17T07:49:12;102499.59;;;21.96;52.48
52839;BME280;39219;53.678;9.856;2022-07-17T07:51:40;102506.53;;;23.00;50.20
52839;BME280;39219;53.678;9.856;2022-07-17T07:54:06;102508.72;;;24.02;49.85
52839;BME280;39219;53.678;9.856;2022-07-17T07:56:34;102510.66;;;24.67;47.17
52839;BME280;39219;53.678;9.856;2022-07-17T07:59:01;102513.44;;;24.99;46.19
52839;BME280;39219;53.678;9.856;2022-07-17T08:01:28;102516.38;;;24.29;46.67
52839;BME280;39219;53.678;9.856;2022-07-17T08:03:55;102511.09;;;24.26;47.68
52839;BME280;39219;53.678;9.856;2022-07-17T08:06:22;102528.06;;;25.13;44.62
52839;BME280;39219;53.678;9.856;2022-07-17T08:08:49;102526.06;;;26.68;41.63
52839;BME280;39219;53.678;9.856;2022-07-17T08:11:15;102528.19;;;28.14;38.08
52839;BME280;39219;53.678;9.856;2022-07-17T08:13:43;102530.34;;;27.96;37.17
52839;BME280;39219;53.678;9.856;2022-07-17T08:16:10;102530.78;;;28.67;37.77
52839;BME280;39219;53.678;9.856;2022-07-17T08:18:36;102539.94;;;27.89;37.45
52839;BME280;39219;53.678;9.856;2022-07-17T08:21:03;102543.19;;;26.70;38.78
52839;BME280;39219;53.678;9.856;2022-07-17T08:23:29;102533.75;;;24.92;40.56
52839;BME280;39219;53.678;9.856;2022-07-17T08:25:56;102529.22;;;23.90;43.84
52839;BME280;39219;53.678;9.856;2022-07-17T08:28:22;102535.34;;;24.96;42.58
52839;BME280;39219;53.678;9.856;2022-07-17T08:30:50;102542.00;;;26.88;38.05
52839;BME280;39219;53.678;9.856;2022-07-17T08:33:17;102541.53;;;27.66;35.81
52839;BME280;39219;53.678;9.856;2022-07-17T08:35:44;102550.31;;;27.97;34.86
52839;BME280;39219;53.678;9.856;2022-07-17T08:38:10;102543.25;;;27.12;36.07
52839;BME280;39219;53.678;9.856;2022-07-17T08:40:38;102552.84;;;27.32;37.22
52839;BME280;39219;53.678;9.856;2022-07-17T08:43:06;102552.63;;;26.64;38.64
52839;BME280;39219;53.678;9.856;2022-07-17T08:45:33;102552.16;;;25.19;40.42
52839;BME280;39219;53.678;9.856;2022-07-17T08:48:02;102548.31;;;24.06;42.54
52839;BME280;39219;53.678;9.856;2022-07-17T08:50:30;102541.50;;;23.98;44.25
52839;BME280;39219;53.678;9.856;2022-07-17T08:52:58;102547.28;;;24.09;43.95
52839;BME280;39219;53.678;9.856;2022-07-17T08:55:25;102547.50;;;24.73;43.05
52839;BME280;39219;53.678;9.856;2022-07-17T08:57:51;102556.16;;;25.46;41.50
52839;BME280;39219;53.678;9.856;2022-07-17T09:00:20;102556.41;;;26.33;38.68
52839;BME280;39219;53.678;9.856;2022-07-17T09:02:56;102552.66;;;27.20;37.42
52839;BME280;39219;53.678;9.856;2022-07-17T09:05:26;102556.91;;;25.64;38.01
52839;BME280;39219;53.678;9.856;2022-07-17T09:07:54;102559.25;;;25.54;38.31
52839;BME280;39219;53.678;9.856;2022-07-17T09:10:33;102556.94;;;25.48;40.69
52839;BME280;39219;53.678;9.856;2022-07-17T09:13:01;102549.63;;;26.09;40.08
52839;BME280;39219;53.678;9.856;2022-07-17T09:15:28;102552.13;;;25.67;40.76
52839;BME280;39219;53.678;9.856;2022-07-17T09:17:55;102551.88;;;24.76;39.90
52839;BME280;39219;53.678;9.856;2022-07-17T09:20:23;102554.81;;;25.05;41.68
52839;BME280;39219;53.678;9.856;2022-07-17T09:22:57;102554.00;;;25.35;40.59
52839;BME280;39219;53.678;9.856;2022-07-17T09:25:38;102552.31;;;25.95;40.82
52839;BME280;39219;53.678;9.856;2022-07-17T09:28:07;102560.22;;;25.99;39.44
52839;BME280;39219;53.678;9.856;2022-07-17T09:30:36;102556.81;;;26.10;38.14
52839;BME280;39219;53.678;9.856;2022-07-17T09:33:06;102554.88;;;26.86;36.89
52839;BME280;39219;53.678;9.856;2022-07-17T09:35:34;102558.44;;;26.72;37.33
52839;BME280;39219;53.678;9.856;2022-07-17T09:38:00;102553.41;;;26.66;38.58
52839;BME280;39219;53.678;9.856;2022-07-17T09:40:27;102555.75;;;26.87;39.37
52839;BME280;39219;53.678;9.856;2022-07-17T09:43:11;102556.59;;;26.44;39.08
52839;BME280;39219;53.678;9.856;2022-07-17T09:45:40;102556.97;;;26.23;39.04
52839;BME280;39219;53.678;9.856;2022-07-17T09:48:09;102566.63;;;25.98;40.01
52839;BME280;39219;53.678;9.856;2022-07-17T09:50:37;102553.66;;;25.87;41.71
52839;BME280;39219;53.678;9.856;2022-07-17T09:53:05;102549.28;;;25.54;39.66
52839;BME280;39219;53.678;9.856;2022-07-17T09:55:32;102548.56;;;25.35;41.31
52839;BME280;39219;53.678;9.856;2022-07-17T09:58:02;102554.69;;;25.22;39.73
52839;BME280;39219;53.678;9.856;2022-07-17T10:00:28;102555.50;;;24.92;40.55
52839;BME280;39219;53.678;9.856;2022-07-17T10:02:55;102547.34;;;25.40;39.21
52839;BME280;39219;53.678;9.856;2022-07-17T10:05:22;102554.97;;;25.34;41.11
52839;BME280;39219;53.678;9.856;2022-07-17T10:07:50;102546.63;;;25.53;39.27
52839;BME280;39219;53.678;9.856;2022-07-17T10:10:17;102541.13;;;25.38;38.62
52839;BME280;39219;53.678;9.856;2022-07-17T10:12:46;102553.84;;;25.22;42.37
52839;BME280;39219;53.678;9.856;2022-07-17T10:15:15;102552.34;;;25.00;40.00
52839;BME280;39219;53.678;9.856;2022-07-17T10:17:41;102551.13;;;25.06;42.04
52839;BME280;39219;53.678;9.856;2022-07-17T10:20:09;102547.88;;;24.83;41.70
52839;BME280;39219;53.678;9.856;2022-07-17T10:22:43;102536.28;;;24.46;41.44
52839;BME280;39219;53.678;9.856;2022-07-17T10:25:14;102549.44;;;24.87;42.44
52839;BME280;39219;53.678;9.856;2022-07-17T10:27:48;102547.44;;;25.07;42.97
52839;BME280;39219;53.678;9.856;2022-07-17T10:30:20;102538.41;;;25.85;42.43
52839;BME280;39219;53.678;9.856;2022-07-17T10:32:53;102536.66;;;26.14;41.36
52839;BME280;39219;53.678;9.856;2022-07-17T10:35:19;102533.13;;;26.12;39.13
52839;BME280;39219;53.678;9.856;2022-07-17T10:37:46;102537.50;;;25.70;40.18
52839;BME280;39219;53.678;9.856;2022-07-17T10:40:18;102537.97;;;25.77;40.68
52839;BME280;39219;53.678;9.856;2022-07-17T10:42:52;102539.78;;;25.92;39.32
52839;BME280;39219;53.678;9.856;2022-07-17T10:45:22;102535.06;;;26.10;40.56
52839;BME280;39219;53.678;9.856;2022-07-17T10:47:52;102534.53;;;25.89;40.17
52839;BME280;39219;53.678;9.856;2022-07-17T10:50:22;102529.66;;;26.25;39.94
52839;BME280;39219;53.678;9.856;2022-07-17T10:53:11;102536.13;;;26.08;39.22
52839;BME280;39219;53.678;9.856;2022-07-17T10:55:41;102532.84;;;26.17;40.12
52839;BME280;39219;53.678;9.856;2022-07-17T10:58:18;102528.72;;;26.40;39.82
52839;BME280;39219;53.678;9.856;2022-07-17T11:00:56;102529.75;;;26.81;39.60
52839;BME280;39219;53.678;9.856;2022-07-17T11:03:22;102520.91;;;26.63;39.95
52839;BME280;39219;53.678;9.856;2022-07-17T11:05:49;102528.19;;;26.19;41.57
52839;BME280;39219;53.678;9.856;2022-07-17T11:08:15;102524.09;;;26.84;39.46
52839;BME280;39219;53.678;9.856;2022-07-17T11:10:45;102520.88;;;27.07;40.41
52839;BME280;39219;53.678;9.856;2022-07-17T11:13:13;102531.78;;;27.07;39.48
52839;BME280;39219;53.678;9.856;2022-07-17T11:15:42;102530.75;;;26.51;40.81
52839;BME280;39219;53.678;9.856;2022-07-17T11:18:14;102522.34;;;26.25;41.24
52839;BME280;39219;53.678;9.856;2022-07-17T11:20:51;102534.19;;;25.33;41.79
52839;BME280;39219;53.678;9.856;2022-07-17T11:23:18;102520.31;;;25.53;45.37
52839;BME280;39219;53.678;9.856;2022-07-17T11:25:58;102524.91;;;25.83;41.98
52839;BME280;39219;53.678;9.856;2022-07-17T11:28:36;102519.25;;;25.86;39.81
52839;BME280;39219;53.678;9.856;2022-07-17T11:31:16;102525.06;;;25.34;43.26
52839;BME280;39219;53.678;9.856;2022-07-17T11:33:47;102530.66;;;25.63;41.37
52839;BME280;39219;53.678;9.856;2022-07-17T11:36:19;102522.34;;;26.11;41.64
52839;BME280;39219;53.678;9.856;2022-07-17T11:38:46;102530.84;;;26.50;38.54
52839;BME280;39219;53.678;9.856;2022-07-17T11:41:15;102532.34;;;25.80;41.21
52839;BME280;39219;53.678;9.856;2022-07-17T11:43:42;102532.38;;;26.25;41.42
52839;BME280;39219;53.678;9.856;2022-07-17T11:46:09;102530.50;;;26.11;39.59
52839;BME280;39219;53.678;9.856;2022-07-17T11:48:35;102528.47;;;26.14;38.95
52839;BME280;39219;53.678;9.856;2022-07-17T11:51:02;102527.78;;;26.11;37.83
52839;BME280;39219;53.678;9.856;2022-07-17T11:53:33;102532.88;;;26.31;40.04
52839;BME280;39219;53.678;9.856;2022-07-17T11:56:01;102525.19;;;26.24;37.99
52839;BME280;39219;53.678;9.856;2022-07-17T11:58:40;102526.25;;;26.21;39.77
52839;BME280;39219;53.678;9.856;2022-07-17T12:01:07;102526.19;;;26.37;40.09
52839;BME280;39219;53.678;9.856;2022-07-17T12:03:33;102521.41;;;26.41;40.95
52839;BME280;39219;53.678;9.856;2022-07-17T12:06:00;102525.00;;;26.27;41.39
52839;BME280;39219;53.678;9.856;2022-07-17T12:08:26;102529.38;;;26.29;39.97
52839;BME280;39219;53.678;9.856;2022-07-17T12:11:03;102534.72;;;26.16;41.65
52839;BME280;39219;53.678;9.856;2022-07-17T12:13:42;102523.06;;;26.29;39.92
52839;BME280;39219;53.678;9.856;2022-07-17T12:16:19;102530.72;;;25.77;39.92
52839;BME280;39219;53.678;9.856;2022-07-17T12:18:58;102526.72;;;25.83;39.25
52839;BME280;39219;53.678;9.856;2022-07-17T12:21:26;102530.97;;;25.72;41.22
52839;BME280;39219;53.678;9.856;2022-07-17T12:23:58;102528.78;;;25.49;41.92
52839;BME280;39219;53.678;9.856;2022-07-17T12:26:25;102522.69;;;25.43;41.15
52839;BME280;39219;53.678;9.856;2022-07-17T12:28:53;102530.41;;;25.51;40.70
52839;BME280;39219;53.678;9.856;2022-07-17T12:31:19;102521.91;;;25.41;41.96
52839;BME280;39219;53.678;9.856;2022-07-17T12:33:49;102521.00;;;25.57;42.81
52839;BME280;39219;53.678;9.856;2022-07-17T12:36:16;102514.59;;;25.88;42.98
52839;BME280;39219;53.678;9.856;2022-07-17T12:38:43;102513.38;;;25.64;43.22
52839;BME280;39219;53.678;9.856;2022-07-17T12:41:10;102506.78;;;24.55;44.03
52839;BME280;39219;53.678;9.856;2022-07-17T12:43:37;102509.31;;;24.76;44.26
52839;BME280;39219;53.678;9.856;2022-07-17T12:46:05;102508.69;;;25.03;44.78
52839;BME280;39219;53.678;9.856;2022-07-17T12:48:32;102509.53;;;25.36;43.97